Aviation Digital Data Service (ADDS)

Output produced by METARs form (2119 UTC 20 August 2019)
found at http://www.aviationweather.gov/metar/data/
 
METAR text: LFBZ 202100Z AUTO 03006KT CAVOK 19/12 Q1025 NOSIG
Conditions at: LFBZ (BIARRITZ/ANGLET , FR) observed 2100 UTC 20 August 2019
Temperature: 19.0°C (66°F)
Dewpoint: 12.0°C (54°F) [RH = 64%]
Pressure (altimeter): 30.27 inches Hg (1025.0 mb)
Winds: from the NNE (30 degrees) at 7 MPH (6 knots; 3.1 m/s)
Visibility: 6 or more miles (10+ km)
Ceiling: ceiling and visibility are OK
Clouds: unknown
Weather: no significant weather observed at this time

METAR text: LFBZ 202030Z AUTO 03006KT CAVOK 19/13 Q1025 NOSIG
Conditions at: LFBZ (BIARRITZ/ANGLET , FR) observed 2030 UTC 20 August 2019
Temperature: 19.0°C (66°F)
Dewpoint: 13.0°C (55°F) [RH = 68%]
Pressure (altimeter): 30.27 inches Hg (1025.0 mb)
Winds: from the NNE (30 degrees) at 7 MPH (6 knots; 3.1 m/s)
Visibility: 6 or more miles (10+ km)
Ceiling: ceiling and visibility are OK
Clouds: unknown
Weather: no significant weather observed at this time

METAR text: LFBZ 202000Z AUTO 01005KT 340V040 CAVOK 19/14 Q1024 NOSIG
Conditions at: LFBZ (BIARRITZ/ANGLET , FR) observed 2000 UTC 20 August 2019
Temperature: 19.0°C (66°F)
Dewpoint: 14.0°C (57°F) [RH = 73%]
Pressure (altimeter): 30.24 inches Hg (1024.0 mb)
Winds: from the N (10 degrees) at 6 MPH (5 knots; 2.6 m/s)
Visibility: 6 or more miles (10+ km)
Ceiling: ceiling and visibility are OK
Clouds: unknown
Weather: no significant weather observed at this time

METAR text: LFBZ 201930Z AUTO 01005KT 320V040 9999 FEW070 SCT150 20/14 Q1024 NOSIG
Conditions at: LFBZ (BIARRITZ/ANGLET , FR) observed 1930 UTC 20 August 2019
Temperature: 20.0°C (68°F)
Dewpoint: 14.0°C (57°F) [RH = 68%]
Pressure (altimeter): 30.24 inches Hg (1024.0 mb)
Winds: from the N (10 degrees) at 6 MPH (5 knots; 2.6 m/s)
Visibility: 6 or more miles (10+ km)
Ceiling: at least 12,000 feet AGL
Clouds: few clouds at 7000 feet AGL
scattered clouds at 15000 feet AGL
Weather: no significant weather observed at this time

METAR text: LFBZ 201900Z AUTO 01008KT 350V060 9999 SCT068 SCT130 20/15 Q1024 NOSIG
Conditions at: LFBZ (BIARRITZ/ANGLET , FR) observed 1900 UTC 20 August 2019
Temperature: 20.0°C (68°F)
Dewpoint: 15.0°C (59°F) [RH = 73%]
Pressure (altimeter): 30.24 inches Hg (1024.0 mb)
Winds: from the N (10 degrees) at 9 MPH (8 knots; 4.1 m/s)
Visibility: 6 or more miles (10+ km)
Ceiling: at least 12,000 feet AGL
Clouds: scattered clouds at 6800 feet AGL
scattered clouds at 13000 feet AGL
Weather: no significant weather observed at this time

METAR text: LFBZ 201830Z AUTO 36007KT 330V030 9999 OVC068 21/14 Q1024 NOSIG
Conditions at: LFBZ (BIARRITZ/ANGLET , FR) observed 1830 UTC 20 August 2019
Temperature: 21.0°C (70°F)
Dewpoint: 14.0°C (57°F) [RH = 64%]
Pressure (altimeter): 30.24 inches Hg (1024.0 mb)
Winds: from the N (360 degrees) at 8 MPH (7 knots; 3.6 m/s)
Visibility: 6 or more miles (10+ km)
Ceiling: 6800 feet AGL
Clouds: overcast cloud deck at 6800 feet AGL
Weather: no significant weather observed at this time

METAR text: LFBZ 201800Z AUTO 36006KT 330V040 9999 BKN068 BKN100 BKN150 21/14 Q1024 NOSIG
Conditions at: LFBZ (BIARRITZ/ANGLET , FR) observed 1800 UTC 20 August 2019
Temperature: 21.0°C (70°F)
Dewpoint: 14.0°C (57°F) [RH = 64%]
Pressure (altimeter): 30.24 inches Hg (1024.0 mb)
Winds: from the N (360 degrees) at 7 MPH (6 knots; 3.1 m/s)
Visibility: 6 or more miles (10+ km)
Ceiling: 6800 feet AGL
Clouds: broken clouds at 6800 feet AGL
broken clouds at 10000 feet AGL
broken clouds at 15000 feet AGL
Weather: no significant weather observed at this time

METAR text: LFBZ 201730Z AUTO 36007KT 330V030 CAVOK 21/14 Q1024 NOSIG
Conditions at: LFBZ (BIARRITZ/ANGLET , FR) observed 1730 UTC 20 August 2019
Temperature: 21.0°C (70°F)
Dewpoint: 14.0°C (57°F) [RH = 64%]
Pressure (altimeter): 30.24 inches Hg (1024.0 mb)
Winds: from the N (360 degrees) at 8 MPH (7 knots; 3.6 m/s)
Visibility: 6 or more miles (10+ km)
Ceiling: ceiling and visibility are OK
Clouds: unknown
Weather: no significant weather observed at this time

METAR text: LFBZ 201700Z AUTO 35009KT 320V020 CAVOK 22/15 Q1024 NOSIG
Conditions at: LFBZ (BIARRITZ/ANGLET , FR) observed 1700 UTC 20 August 2019
Temperature: 22.0°C (72°F)
Dewpoint: 15.0°C (59°F) [RH = 65%]
Pressure (altimeter): 30.24 inches Hg (1024.0 mb)
Winds: from the N (350 degrees) at 10 MPH (9 knots; 4.6 m/s)
Visibility: 6 or more miles (10+ km)
Ceiling: ceiling and visibility are OK
Clouds: unknown
Weather: no significant weather observed at this time

METAR text: LFBZ 201630Z AUTO 35008KT 320V040 CAVOK 21/14 Q1024 NOSIG
Conditions at: LFBZ (BIARRITZ/ANGLET , FR) observed 1630 UTC 20 August 2019
Temperature: 21.0°C (70°F)
Dewpoint: 14.0°C (57°F) [RH = 64%]
Pressure (altimeter): 30.24 inches Hg (1024.0 mb)
Winds: from the N (350 degrees) at 9 MPH (8 knots; 4.1 m/s)
Visibility: 6 or more miles (10+ km)
Ceiling: ceiling and visibility are OK
Clouds: unknown
Weather: no significant weather observed at this time

METAR text: LFBZ 201600Z AUTO 35008KT 330V040 9999 FEW029 SCT066 22/15 Q1024 NOSIG
Conditions at: LFBZ (BIARRITZ/ANGLET , FR) observed 1600 UTC 20 August 2019
Temperature: 22.0°C (72°F)
Dewpoint: 15.0°C (59°F) [RH = 65%]
Pressure (altimeter): 30.24 inches Hg (1024.0 mb)
Winds: from the N (350 degrees) at 9 MPH (8 knots; 4.1 m/s)
Visibility: 6 or more miles (10+ km)
Ceiling: at least 12,000 feet AGL
Clouds: few clouds at 2900 feet AGL
scattered clouds at 6600 feet AGL
Weather: no significant weather observed at this time

METAR text: LFBZ 201530Z AUTO 35007KT 320V030 9999 FEW027 BKN062 BKN100 21/16 Q1024 NOSIG
Conditions at: LFBZ (BIARRITZ/ANGLET , FR) observed 1530 UTC 20 August 2019
Temperature: 21.0°C (70°F)
Dewpoint: 16.0°C (61°F) [RH = 73%]
Pressure (altimeter): 30.24 inches Hg (1024.0 mb)
Winds: from the N (350 degrees) at 8 MPH (7 knots; 3.6 m/s)
Visibility: 6 or more miles (10+ km)
Ceiling: 6200 feet AGL
Clouds: few clouds at 2700 feet AGL
broken clouds at 6200 feet AGL
broken clouds at 10000 feet AGL
Weather: no significant weather observed at this time

METAR text: LFBZ 201500Z AUTO 35007KT 320V020 9999 OVC064 21/16 Q1025 NOSIG
Conditions at: LFBZ (BIARRITZ/ANGLET , FR) observed 1500 UTC 20 August 2019
Temperature: 21.0°C (70°F)
Dewpoint: 16.0°C (61°F) [RH = 73%]
Pressure (altimeter): 30.27 inches Hg (1025.0 mb)
Winds: from the N (350 degrees) at 8 MPH (7 knots; 3.6 m/s)
Visibility: 6 or more miles (10+ km)
Ceiling: 6400 feet AGL
Clouds: overcast cloud deck at 6400 feet AGL
Weather: no significant weather observed at this time

METAR text: LFBZ 201430Z AUTO 35008KT 320V040 9999 FEW023 BKN058 BKN072 21/16 Q1025 NOSIG
Conditions at: LFBZ (BIARRITZ/ANGLET , FR) observed 1430 UTC 20 August 2019
Temperature: 21.0°C (70°F)
Dewpoint: 16.0°C (61°F) [RH = 73%]
Pressure (altimeter): 30.27 inches Hg (1025.0 mb)
Winds: from the N (350 degrees) at 9 MPH (8 knots; 4.1 m/s)
Visibility: 6 or more miles (10+ km)
Ceiling: 5800 feet AGL
Clouds: few clouds at 2300 feet AGL
broken clouds at 5800 feet AGL
broken clouds at 7200 feet AGL
Weather: no significant weather observed at this time

METAR text: LFBZ 201400Z AUTO 33007KT 290V010 9999 FEW028 BKN072 BKN150 21/17 Q1025 NOSIG
Conditions at: LFBZ (BIARRITZ/ANGLET , FR) observed 1400 UTC 20 August 2019
Temperature: 21.0°C (70°F)
Dewpoint: 17.0°C (63°F) [RH = 78%]
Pressure (altimeter): 30.27 inches Hg (1025.0 mb)
Winds: from the NNW (330 degrees) at 8 MPH (7 knots; 3.6 m/s)
Visibility: 6 or more miles (10+ km)
Ceiling: 7200 feet AGL
Clouds: few clouds at 2800 feet AGL
broken clouds at 7200 feet AGL
broken clouds at 15000 feet AGL
Weather: no significant weather observed at this time

METAR text: LFBZ 201330Z AUTO 31007KT 9999 FEW041 21/16 Q1025 NOSIG
Conditions at: LFBZ (BIARRITZ/ANGLET , FR) observed 1330 UTC 20 August 2019
Temperature: 21.0°C (70°F)
Dewpoint: 16.0°C (61°F) [RH = 73%]
Pressure (altimeter): 30.27 inches Hg (1025.0 mb)
Winds: from the NW (310 degrees) at 8 MPH (7 knots; 3.6 m/s)
Visibility: 6 or more miles (10+ km)
Ceiling: at least 12,000 feet AGL
Clouds: few clouds at 4100 feet AGL
Weather: no significant weather observed at this time

METAR text: LFBZ 201300Z AUTO 33008KT 300V360 9999 FEW028 SCT150 21/15 Q1024 NOSIG
Conditions at: LFBZ (BIARRITZ/ANGLET , FR) observed 1300 UTC 20 August 2019
Temperature: 21.0°C (70°F)
Dewpoint: 15.0°C (59°F) [RH = 69%]
Pressure (altimeter): 30.24 inches Hg (1024.0 mb)
Winds: from the NNW (330 degrees) at 9 MPH (8 knots; 4.1 m/s)
Visibility: 6 or more miles (10+ km)
Ceiling: at least 12,000 feet AGL
Clouds: few clouds at 2800 feet AGL
scattered clouds at 15000 feet AGL
Weather: no significant weather observed at this time

METAR text: LFBZ 201230Z AUTO 33007KT 280V020 9999 BKN026 BKN100 BKN130 21/15 Q1024 NOSIG
Conditions at: LFBZ (BIARRITZ/ANGLET , FR) observed 1230 UTC 20 August 2019
Temperature: 21.0°C (70°F)
Dewpoint: 15.0°C (59°F) [RH = 69%]
Pressure (altimeter): 30.24 inches Hg (1024.0 mb)
Winds: from the NNW (330 degrees) at 8 MPH (7 knots; 3.6 m/s)
Visibility: 6 or more miles (10+ km)
Ceiling: 2600 feet AGL
Clouds: broken clouds at 2600 feet AGL
broken clouds at 10000 feet AGL
broken clouds at 13000 feet AGL
Weather: no significant weather observed at this time

METAR text: LFBZ 201200Z AUTO 05005KT 020V090 9999 FEW027 21/16 Q1024 NOSIG
Conditions at: LFBZ (BIARRITZ/ANGLET , FR) observed 1200 UTC 20 August 2019
Temperature: 21.0°C (70°F)
Dewpoint: 16.0°C (61°F) [RH = 73%]
Pressure (altimeter): 30.24 inches Hg (1024.0 mb)
Winds: from the NE (50 degrees) at 6 MPH (5 knots; 2.6 m/s)
Visibility: 6 or more miles (10+ km)
Ceiling: at least 12,000 feet AGL
Clouds: few clouds at 2700 feet AGL
Weather: no significant weather observed at this time

METAR text: LFBZ 201130Z AUTO 01003KT 290V080 9999 FEW018 BKN070 BKN084 21/15 Q1025 NOSIG
Conditions at: LFBZ (BIARRITZ/ANGLET , FR) observed 1130 UTC 20 August 2019
Temperature: 21.0°C (70°F)
Dewpoint: 15.0°C (59°F) [RH = 69%]
Pressure (altimeter): 30.27 inches Hg (1025.0 mb)
Winds: from the N (10 degrees) at 3 MPH (3 knots; 1.5 m/s)
Visibility: 6 or more miles (10+ km)
Ceiling: 7000 feet AGL
Clouds: few clouds at 1800 feet AGL
broken clouds at 7000 feet AGL
broken clouds at 8400 feet AGL
Weather: no significant weather observed at this time

METAR text: LFBZ 201100Z AUTO VRB03KT 9999 FEW017 OVC070 20/16 Q1025 NOSIG
Conditions at: LFBZ (BIARRITZ/ANGLET , FR) observed 1100 UTC 20 August 2019
Temperature: 20.0°C (68°F)
Dewpoint: 16.0°C (61°F) [RH = 78%]
Pressure (altimeter): 30.27 inches Hg (1025.0 mb)
Winds: variable direction winds at 3 MPH (3 knots; 1.5 m/s)
Visibility: 6 or more miles (10+ km)
Ceiling: 7000 feet AGL
Clouds: few clouds at 1700 feet AGL
overcast cloud deck at 7000 feet AGL
Weather: no significant weather observed at this time

METAR text: LFBZ 201030Z AUTO 09004KT 050V140 9999 FEW013 OVC068 19/16 Q1024 BECMG 34010KT
Conditions at: LFBZ (BIARRITZ/ANGLET , FR) observed 1030 UTC 20 August 2019
Temperature: 19.0°C (66°F)
Dewpoint: 16.0°C (61°F) [RH = 83%]
Pressure (altimeter): 30.24 inches Hg (1024.0 mb)
Winds: from the E (90 degrees) at 5 MPH (4 knots; 2.1 m/s)
Visibility: 6 or more miles (10+ km)
Ceiling: 6800 feet AGL
Clouds: few clouds at 1300 feet AGL
overcast cloud deck at 6800 feet AGL
Weather: no significant weather observed at this time

METAR text: LFBZ 201000Z AUTO VRB03KT 9999 FEW012 OVC072 19/15 Q1024 NOSIG
Conditions at: LFBZ (BIARRITZ/ANGLET , FR) observed 1000 UTC 20 August 2019
Temperature: 19.0°C (66°F)
Dewpoint: 15.0°C (59°F) [RH = 78%]
Pressure (altimeter): 30.24 inches Hg (1024.0 mb)
Winds: variable direction winds at 3 MPH (3 knots; 1.5 m/s)
Visibility: 6 or more miles (10+ km)
Ceiling: 7200 feet AGL
Clouds: few clouds at 1200 feet AGL
overcast cloud deck at 7200 feet AGL
Weather: no significant weather observed at this time

METAR text: LFBZ 200930Z AUTO 04003KT 310V090 9999 FEW010 OVC072 18/16 Q1024 NOSIG
Conditions at: LFBZ (BIARRITZ/ANGLET , FR) observed 0930 UTC 20 August 2019
Temperature: 18.0°C (64°F)
Dewpoint: 16.0°C (61°F) [RH = 88%]
Pressure (altimeter): 30.24 inches Hg (1024.0 mb)
Winds: from the NE (40 degrees) at 3 MPH (3 knots; 1.5 m/s)
Visibility: 6 or more miles (10+ km)
Ceiling: 7200 feet AGL
Clouds: few clouds at 1000 feet AGL
overcast cloud deck at 7200 feet AGL
Weather: no significant weather observed at this time

METAR text: LFBZ 200900Z AUTO VRB03KT 9999 FEW007 OVC070 18/16 Q1024 TEMPO BKN006
Conditions at: LFBZ (BIARRITZ/ANGLET , FR) observed 0900 UTC 20 August 2019
Temperature: 18.0°C (64°F)
Dewpoint: 16.0°C (61°F) [RH = 88%]
Pressure (altimeter): 30.24 inches Hg (1024.0 mb)
Winds: variable direction winds at 3 MPH (3 knots; 1.5 m/s)
Visibility: 6 or more miles (10+ km)
Ceiling: 7000 feet AGL
Clouds: few clouds at 700 feet AGL
overcast cloud deck at 7000 feet AGL
Weather: no significant weather observed at this time

METAR text: LFBZ 200830Z AUTO VRB02KT 9999 BKN008 OVC068 17/16 Q1024 BECMG BKN040
Conditions at: LFBZ (BIARRITZ/ANGLET , FR) observed 0830 UTC 20 August 2019
Temperature: 17.0°C (63°F)
Dewpoint: 16.0°C (61°F) [RH = 94%]
Pressure (altimeter): 30.24 inches Hg (1024.0 mb)
Winds: variable direction winds at 2 MPH (2 knots; 1.0 m/s)
Visibility: 6 or more miles (10+ km)
Ceiling: 800 feet AGL
Clouds: broken clouds at 800 feet AGL
overcast cloud deck at 6800 feet AGL
Weather: no significant weather observed at this time

METAR text: LFBZ 200800Z AUTO 06003KT 020V100 9999 BKN007 OVC068 16/16 Q1024 BECMG BKN040
Conditions at: LFBZ (BIARRITZ/ANGLET , FR) observed 0800 UTC 20 August 2019
Temperature: 16.0°C (61°F)
Dewpoint: 16.0°C (61°F) [RH = 100%]
Pressure (altimeter): 30.24 inches Hg (1024.0 mb)
Winds: from the ENE (60 degrees) at 3 MPH (3 knots; 1.5 m/s)
Visibility: 6 or more miles (10+ km)
Ceiling: 700 feet AGL
Clouds: broken clouds at 700 feet AGL
overcast cloud deck at 6800 feet AGL
Weather: no significant weather observed at this time

METAR text: LFBZ 200730Z AUTO VRB02KT 9999 OVC068 16/16 Q1023 NOSIG
Conditions at: LFBZ (BIARRITZ/ANGLET , FR) observed 0730 UTC 20 August 2019
Temperature: 16.0°C (61°F)
Dewpoint: 16.0°C (61°F) [RH = 100%]
Pressure (altimeter): 30.21 inches Hg (1023.0 mb)
Winds: variable direction winds at 2 MPH (2 knots; 1.0 m/s)
Visibility: 6 or more miles (10+ km)
Ceiling: 6800 feet AGL
Clouds: overcast cloud deck at 6800 feet AGL
Weather: no significant weather observed at this time

METAR text: LFBZ 200700Z AUTO 11003KT 9999 OVC066 16/16 Q1023 TEMPO 4000 -RA BKN014
Conditions at: LFBZ (BIARRITZ/ANGLET , FR) observed 0700 UTC 20 August 2019
Temperature: 16.0°C (61°F)
Dewpoint: 16.0°C (61°F) [RH = 100%]
Pressure (altimeter): 30.21 inches Hg (1023.0 mb)
Winds: from the ESE (110 degrees) at 3 MPH (3 knots; 1.5 m/s)
Visibility: 6 or more miles (10+ km)
Ceiling: 6600 feet AGL
Clouds: overcast cloud deck at 6600 feet AGL
Weather: no significant weather observed at this time

METAR text: LFBZ 200630Z AUTO 11003KT 070V140 9999 OVC066 16/15 Q1022 TEMPO 4000 -RA BKN014
Conditions at: LFBZ (BIARRITZ/ANGLET , FR) observed 0630 UTC 20 August 2019
Temperature: 16.0°C (61°F)
Dewpoint: 15.0°C (59°F) [RH = 94%]
Pressure (altimeter): 30.18 inches Hg (1022.0 mb)
Winds: from the ESE (110 degrees) at 3 MPH (3 knots; 1.5 m/s)
Visibility: 6 or more miles (10+ km)
Ceiling: 6600 feet AGL
Clouds: overcast cloud deck at 6600 feet AGL
Weather: no significant weather observed at this time

METAR text: LFBZ 200600Z AUTO 13004KT 9999 -RA FEW052 BKN064 OVC076 16/15 Q1022 TEMPO 4000 -RA BKN014
Conditions at: LFBZ (BIARRITZ/ANGLET , FR) observed 0600 UTC 20 August 2019
Temperature: 16.0°C (61°F)
Dewpoint: 15.0°C (59°F) [RH = 94%]
Pressure (altimeter): 30.18 inches Hg (1022.0 mb)
Winds: from the SE (130 degrees) at 5 MPH (4 knots; 2.1 m/s)
Visibility: 6 or more miles (10+ km)
Ceiling: 6400 feet AGL
Clouds: few clouds at 5200 feet AGL
broken clouds at 6400 feet AGL
overcast cloud deck at 7600 feet AGL
Weather: -RA  (light rain)

METAR text: LFBZ 200530Z AUTO VRB02KT 9999 -RA OVC064 16/15 Q1022 TEMPO 4000 -RA BKN014
Conditions at: LFBZ (BIARRITZ/ANGLET , FR) observed 0530 UTC 20 August 2019
Temperature: 16.0°C (61°F)
Dewpoint: 15.0°C (59°F) [RH = 94%]
Pressure (altimeter): 30.18 inches Hg (1022.0 mb)
Winds: variable direction winds at 2 MPH (2 knots; 1.0 m/s)
Visibility: 6 or more miles (10+ km)
Ceiling: 6400 feet AGL
Clouds: overcast cloud deck at 6400 feet AGL
Weather: -RA  (light rain)

METAR text: LFBZ 200500Z AUTO 07003KT 360V130 9999 FEW045/// OVC060/// ///TCU 16/15 Q1021 TEMPO 4000 -RA BKN014
Conditions at: LFBZ (BIARRITZ/ANGLET , FR) observed 0500 UTC 20 August 2019
Temperature: 16.0°C (61°F)
Dewpoint: 15.0°C (59°F) [RH = 94%]
Pressure (altimeter): 30.15 inches Hg (1021.0 mb)
Winds: from the ENE (70 degrees) at 3 MPH (3 knots; 1.5 m/s)
Visibility: 6 or more miles (10+ km)
Ceiling: 6000 feet AGL
Clouds: few clouds at 4500 feet AGL
overcast cloud deck at 6000 feet AGL
Weather: no significant weather observed at this time

METAR text: LFBZ 200430Z AUTO 07003KT 040V100 9999 FEW043/// OVC052/// ///TCU 16/15 Q1021 TEMPO 4000 -RA BKN014
Conditions at: LFBZ (BIARRITZ/ANGLET , FR) observed 0430 UTC 20 August 2019
Temperature: 16.0°C (61°F)
Dewpoint: 15.0°C (59°F) [RH = 94%]
Pressure (altimeter): 30.15 inches Hg (1021.0 mb)
Winds: from the ENE (70 degrees) at 3 MPH (3 knots; 1.5 m/s)
Visibility: 6 or more miles (10+ km)
Ceiling: 5200 feet AGL
Clouds: few clouds at 4300 feet AGL
overcast cloud deck at 5200 feet AGL
Weather: no significant weather observed at this time

METAR text: LFBZ 200400Z AUTO 08005KT 9999 OVC050/// ///TCU 16/15 Q1021 TEMPO 4000 -RA BKN014
Conditions at: LFBZ (BIARRITZ/ANGLET , FR) observed 0400 UTC 20 August 2019
Temperature: 16.0°C (61°F)
Dewpoint: 15.0°C (59°F) [RH = 94%]
Pressure (altimeter): 30.15 inches Hg (1021.0 mb)
Winds: from the E (80 degrees) at 6 MPH (5 knots; 2.6 m/s)
Visibility: 6 or more miles (10+ km)
Ceiling: 5000 feet AGL
Clouds: overcast cloud deck at 5000 feet AGL
Weather: no significant weather observed at this time

METAR text: LFBZ 200330Z AUTO 08004KT 9999 -RA OVC047 16/15 Q1021 TEMPO 4000 -RA BKN014
Conditions at: LFBZ (BIARRITZ/ANGLET , FR) observed 0330 UTC 20 August 2019
Temperature: 16.0°C (61°F)
Dewpoint: 15.0°C (59°F) [RH = 94%]
Pressure (altimeter): 30.15 inches Hg (1021.0 mb)
Winds: from the E (80 degrees) at 5 MPH (4 knots; 2.1 m/s)
Visibility: 6 or more miles (10+ km)
Ceiling: 4700 feet AGL
Clouds: overcast cloud deck at 4700 feet AGL
Weather: -RA  (light rain)

METAR text: LFBZ 200300Z AUTO 07004KT 040V100 9999 -RA OVC048 16/15 Q1021 TEMPO 4000 -RA BKN014
Conditions at: LFBZ (BIARRITZ/ANGLET , FR) observed 0300 UTC 20 August 2019
Temperature: 16.0°C (61°F)
Dewpoint: 15.0°C (59°F) [RH = 94%]
Pressure (altimeter): 30.15 inches Hg (1021.0 mb)
Winds: from the ENE (70 degrees) at 5 MPH (4 knots; 2.1 m/s)
Visibility: 6 or more miles (10+ km)
Ceiling: 4800 feet AGL
Clouds: overcast cloud deck at 4800 feet AGL
Weather: -RA  (light rain)

METAR text: LFBZ 200230Z AUTO 05004KT 010V080 9999 RA BKN046 OVC052 16/15 Q1021 TEMPO 4000 -RA BKN014
Conditions at: LFBZ (BIARRITZ/ANGLET , FR) observed 0230 UTC 20 August 2019
Temperature: 16.0°C (61°F)
Dewpoint: 15.0°C (59°F) [RH = 94%]
Pressure (altimeter): 30.15 inches Hg (1021.0 mb)
Winds: from the NE (50 degrees) at 5 MPH (4 knots; 2.1 m/s)
Visibility: 6 or more miles (10+ km)
Ceiling: 4600 feet AGL
Clouds: broken clouds at 4600 feet AGL
overcast cloud deck at 5200 feet AGL
Weather: RA  (moderate rain)

METAR text: LFBZ 200200Z AUTO 08005KT 7000 -RA BKN046/// OVC052/// ///TCU 16/15 Q1021 TEMPO 4000 -RA BKN014
Conditions at: LFBZ (BIARRITZ/ANGLET , FR) observed 0200 UTC 20 August 2019
Temperature: 16.0°C (61°F)
Dewpoint: 15.0°C (59°F) [RH = 94%]
Pressure (altimeter): 30.15 inches Hg (1021.0 mb)
Winds: from the E (80 degrees) at 6 MPH (5 knots; 2.6 m/s)
Visibility: 4 miles ( 7 km)
Ceiling: 4600 feet AGL
Clouds: broken clouds at 4600 feet AGL
overcast cloud deck at 5200 feet AGL
Weather: -RA  (light rain)

METAR text: LFBZ 200130Z AUTO 05004KT 350V100 9999 -RA BKN044 OVC092 16/15 Q1021 TEMPO 4000 -RA BKN014
Conditions at: LFBZ (BIARRITZ/ANGLET , FR) observed 0130 UTC 20 August 2019
Temperature: 16.0°C (61°F)
Dewpoint: 15.0°C (59°F) [RH = 94%]
Pressure (altimeter): 30.15 inches Hg (1021.0 mb)
Winds: from the NE (50 degrees) at 5 MPH (4 knots; 2.1 m/s)
Visibility: 6 or more miles (10+ km)
Ceiling: 4400 feet AGL
Clouds: broken clouds at 4400 feet AGL
overcast cloud deck at 9200 feet AGL
Weather: -RA  (light rain)

METAR text: LFBZ 200100Z AUTO 04005KT 010V080 9999 RA OVC044/// ///TCU 17/15 Q1021 TEMPO 4000 -RA BKN014
Conditions at: LFBZ (BIARRITZ/ANGLET , FR) observed 0100 UTC 20 August 2019
Temperature: 17.0°C (63°F)
Dewpoint: 15.0°C (59°F) [RH = 88%]
Pressure (altimeter): 30.15 inches Hg (1021.0 mb)
Winds: from the NE (40 degrees) at 6 MPH (5 knots; 2.6 m/s)
Visibility: 6 or more miles (10+ km)
Ceiling: 4400 feet AGL
Clouds: overcast cloud deck at 4400 feet AGL
Weather: RA  (moderate rain)

METAR text: LFBZ 200030Z AUTO 00000KT 9999 OVC043/// ///TCU 18/14 Q1021 TEMPO 4000 -RA BKN014
Conditions at: LFBZ (BIARRITZ/ANGLET , FR) observed 0030 UTC 20 August 2019
Temperature: 18.0°C (64°F)
Dewpoint: 14.0°C (57°F) [RH = 77%]
Pressure (altimeter): 30.15 inches Hg (1021.0 mb)
Winds: calm
Visibility: 6 or more miles (10+ km)
Ceiling: 4300 feet AGL
Clouds: overcast cloud deck at 4300 feet AGL
Weather: no significant weather observed at this time

METAR text: LFBZ 200000Z AUTO VRB03KT 9999 OVC044 17/14 Q1021 NOSIG
Conditions at: LFBZ (BIARRITZ/ANGLET , FR) observed 0000 UTC 20 August 2019
Temperature: 17.0°C (63°F)
Dewpoint: 14.0°C (57°F) [RH = 82%]
Pressure (altimeter): 30.15 inches Hg (1021.0 mb)
Winds: variable direction winds at 3 MPH (3 knots; 1.5 m/s)
Visibility: 6 or more miles (10+ km)
Ceiling: 4400 feet AGL
Clouds: overcast cloud deck at 4400 feet AGL
Weather: no significant weather observed at this time

METAR text: LFBZ 192330Z AUTO 05005KT 9999 OVC047 18/14 Q1021 NOSIG
Conditions at: LFBZ (BIARRITZ/ANGLET , FR) observed 2330 UTC 19 August 2019
Temperature: 18.0°C (64°F)
Dewpoint: 14.0°C (57°F) [RH = 77%]
Pressure (altimeter): 30.15 inches Hg (1021.0 mb)
Winds: from the NE (50 degrees) at 6 MPH (5 knots; 2.6 m/s)
Visibility: 6 or more miles (10+ km)
Ceiling: 4700 feet AGL
Clouds: overcast cloud deck at 4700 feet AGL
Weather: no significant weather observed at this time

METAR text: LFBZ 192300Z AUTO VRB02KT 9999 OVC049 18/15 Q1022 NOSIG
Conditions at: LFBZ (BIARRITZ/ANGLET , FR) observed 2300 UTC 19 August 2019
Temperature: 18.0°C (64°F)
Dewpoint: 15.0°C (59°F) [RH = 83%]
Pressure (altimeter): 30.18 inches Hg (1022.0 mb)
Winds: variable direction winds at 2 MPH (2 knots; 1.0 m/s)
Visibility: 6 or more miles (10+ km)
Ceiling: 4900 feet AGL
Clouds: overcast cloud deck at 4900 feet AGL
Weather: no significant weather observed at this time

METAR text: LFBZ 192230Z AUTO 03005KT 9999 OVC054 18/14 Q1021 NOSIG
Conditions at: LFBZ (BIARRITZ/ANGLET , FR) observed 2230 UTC 19 August 2019
Temperature: 18.0°C (64°F)
Dewpoint: 14.0°C (57°F) [RH = 77%]
Pressure (altimeter): 30.15 inches Hg (1021.0 mb)
Winds: from the NNE (30 degrees) at 6 MPH (5 knots; 2.6 m/s)
Visibility: 6 or more miles (10+ km)
Ceiling: 5400 feet AGL
Clouds: overcast cloud deck at 5400 feet AGL
Weather: no significant weather observed at this time

METAR text: LFBZ 192200Z AUTO 04003KT 9999 OVC054/// ///TCU 18/14 Q1021 BECMG BKN030
Conditions at: LFBZ (BIARRITZ/ANGLET , FR) observed 2200 UTC 19 August 2019
Temperature: 18.0°C (64°F)
Dewpoint: 14.0°C (57°F) [RH = 77%]
Pressure (altimeter): 30.15 inches Hg (1021.0 mb)
Winds: from the NE (40 degrees) at 3 MPH (3 knots; 1.5 m/s)
Visibility: 6 or more miles (10+ km)
Ceiling: 5400 feet AGL
Clouds: overcast cloud deck at 5400 feet AGL
Weather: no significant weather observed at this time

METAR text: LFBZ 192130Z AUTO 06004KT 350V090 9999 -RA OVC054/// ///CB 18/14 Q1021 BECMG BKN030
Conditions at: LFBZ (BIARRITZ/ANGLET , FR) observed 2130 UTC 19 August 2019
Temperature: 18.0°C (64°F)
Dewpoint: 14.0°C (57°F) [RH = 77%]
Pressure (altimeter): 30.15 inches Hg (1021.0 mb)
Winds: from the ENE (60 degrees) at 5 MPH (4 knots; 2.1 m/s)
Visibility: 6 or more miles (10+ km)
Ceiling: 5400 feet AGL
Clouds: overcast cloud deck at 5400 feet AGL
Weather: -RA  (light rain)

METAR text: LFBZ 192100Z AUTO VRB02KT 9999 OVC052/// ///CB 19/14 Q1022 BECMG BKN030
Conditions at: LFBZ (BIARRITZ/ANGLET , FR) observed 2100 UTC 19 August 2019
Temperature: 19.0°C (66°F)
Dewpoint: 14.0°C (57°F) [RH = 73%]
Pressure (altimeter): 30.18 inches Hg (1022.0 mb)
Winds: variable direction winds at 2 MPH (2 knots; 1.0 m/s)
Visibility: 6 or more miles (10+ km)
Ceiling: 5200 feet AGL
Clouds: overcast cloud deck at 5200 feet AGL
Weather: no significant weather observed at this time

METAR text: LFBZ 192030Z AUTO 03005KT 9999 OVC056 19/14 Q1021 NOSIG
Conditions at: LFBZ (BIARRITZ/ANGLET , FR) observed 2030 UTC 19 August 2019
Temperature: 19.0°C (66°F)
Dewpoint: 14.0°C (57°F) [RH = 73%]
Pressure (altimeter): 30.15 inches Hg (1021.0 mb)
Winds: from the NNE (30 degrees) at 6 MPH (5 knots; 2.6 m/s)
Visibility: 6 or more miles (10+ km)
Ceiling: 5600 feet AGL
Clouds: overcast cloud deck at 5600 feet AGL
Weather: no significant weather observed at this time

METAR text: LFBZ 192000Z AUTO 05005KT 9999 OVC054 19/14 Q1021 NOSIG
Conditions at: LFBZ (BIARRITZ/ANGLET , FR) observed 2000 UTC 19 August 2019
Temperature: 19.0°C (66°F)
Dewpoint: 14.0°C (57°F) [RH = 73%]
Pressure (altimeter): 30.15 inches Hg (1021.0 mb)
Winds: from the NE (50 degrees) at 6 MPH (5 knots; 2.6 m/s)
Visibility: 6 or more miles (10+ km)
Ceiling: 5400 feet AGL
Clouds: overcast cloud deck at 5400 feet AGL
Weather: no significant weather observed at this time

METAR text: LFBZ 191930Z AUTO 02006KT 330V050 9999 OVC054 19/15 Q1021 NOSIG
Conditions at: LFBZ (BIARRITZ/ANGLET , FR) observed 1930 UTC 19 August 2019
Temperature: 19.0°C (66°F)
Dewpoint: 15.0°C (59°F) [RH = 78%]
Pressure (altimeter): 30.15 inches Hg (1021.0 mb)
Winds: from the NNE (20 degrees) at 7 MPH (6 knots; 3.1 m/s)
Visibility: 6 or more miles (10+ km)
Ceiling: 5400 feet AGL
Clouds: overcast cloud deck at 5400 feet AGL
Weather: no significant weather observed at this time

METAR text: LFBZ 191900Z AUTO 02005KT 330V050 9999 OVC054 20/15 Q1021 NOSIG
Conditions at: LFBZ (BIARRITZ/ANGLET , FR) observed 1900 UTC 19 August 2019
Temperature: 20.0°C (68°F)
Dewpoint: 15.0°C (59°F) [RH = 73%]
Pressure (altimeter): 30.15 inches Hg (1021.0 mb)
Winds: from the NNE (20 degrees) at 6 MPH (5 knots; 2.6 m/s)
Visibility: 6 or more miles (10+ km)
Ceiling: 5400 feet AGL
Clouds: overcast cloud deck at 5400 feet AGL
Weather: no significant weather observed at this time

METAR text: LFBZ 191830Z AUTO 02006KT 9999 SCT049 OVC056 20/15 Q1020 NOSIG
Conditions at: LFBZ (BIARRITZ/ANGLET , FR) observed 1830 UTC 19 August 2019
Temperature: 20.0°C (68°F)
Dewpoint: 15.0°C (59°F) [RH = 73%]
Pressure (altimeter): 30.12 inches Hg (1020.0 mb)
Winds: from the NNE (20 degrees) at 7 MPH (6 knots; 3.1 m/s)
Visibility: 6 or more miles (10+ km)
Ceiling: 5600 feet AGL
Clouds: scattered clouds at 4900 feet AGL
overcast cloud deck at 5600 feet AGL
Weather: no significant weather observed at this time

METAR text: LFBZ 191800Z AUTO 01007KT 340V040 9999 BKN040 OVC046 20/15 Q1021 NOSIG
Conditions at: LFBZ (BIARRITZ/ANGLET , FR) observed 1800 UTC 19 August 2019
Temperature: 20.0°C (68°F)
Dewpoint: 15.0°C (59°F) [RH = 73%]
Pressure (altimeter): 30.15 inches Hg (1021.0 mb)
Winds: from the N (10 degrees) at 8 MPH (7 knots; 3.6 m/s)
Visibility: 6 or more miles (10+ km)
Ceiling: 4000 feet AGL
Clouds: broken clouds at 4000 feet AGL
overcast cloud deck at 4600 feet AGL
Weather: no significant weather observed at this time

METAR text: LFBZ 191730Z AUTO 03006KT 9999 BKN042 OVC049 20/16 Q1020 NOSIG
Conditions at: LFBZ (BIARRITZ/ANGLET , FR) observed 1730 UTC 19 August 2019
Temperature: 20.0°C (68°F)
Dewpoint: 16.0°C (61°F) [RH = 78%]
Pressure (altimeter): 30.12 inches Hg (1020.0 mb)
Winds: from the NNE (30 degrees) at 7 MPH (6 knots; 3.1 m/s)
Visibility: 6 or more miles (10+ km)
Ceiling: 4200 feet AGL
Clouds: broken clouds at 4200 feet AGL
overcast cloud deck at 4900 feet AGL
Weather: no significant weather observed at this time

METAR text: LFBZ 191700Z AUTO 03005KT 9999 OVC047/// ///TCU 20/15 Q1021 BECMG BKN040
Conditions at: LFBZ (BIARRITZ/ANGLET , FR) observed 1700 UTC 19 August 2019
Temperature: 20.0°C (68°F)
Dewpoint: 15.0°C (59°F) [RH = 73%]
Pressure (altimeter): 30.15 inches Hg (1021.0 mb)
Winds: from the NNE (30 degrees) at 6 MPH (5 knots; 2.6 m/s)
Visibility: 6 or more miles (10+ km)
Ceiling: 4700 feet AGL
Clouds: overcast cloud deck at 4700 feet AGL
Weather: no significant weather observed at this time

METAR text: LFBZ 191630Z AUTO 07004KT 9999 BKN044 OVC054 20/15 Q1021 TEMPO 35010KT
Conditions at: LFBZ (BIARRITZ/ANGLET , FR) observed 1630 UTC 19 August 2019
Temperature: 20.0°C (68°F)
Dewpoint: 15.0°C (59°F) [RH = 73%]
Pressure (altimeter): 30.15 inches Hg (1021.0 mb)
Winds: from the ENE (70 degrees) at 5 MPH (4 knots; 2.1 m/s)
Visibility: 6 or more miles (10+ km)
Ceiling: 4400 feet AGL
Clouds: broken clouds at 4400 feet AGL
overcast cloud deck at 5400 feet AGL
Weather: no significant weather observed at this time

METAR text: LFBZ 191600Z AUTO 10003KT 050V150 9999 FEW032 BKN041 OVC070 20/15 Q1020 TEMPO 35010KT
Conditions at: LFBZ (BIARRITZ/ANGLET , FR) observed 1600 UTC 19 August 2019
Temperature: 20.0°C (68°F)
Dewpoint: 15.0°C (59°F) [RH = 73%]
Pressure (altimeter): 30.12 inches Hg (1020.0 mb)
Winds: from the E (100 degrees) at 3 MPH (3 knots; 1.5 m/s)
Visibility: 6 or more miles (10+ km)
Ceiling: 4100 feet AGL
Clouds: few clouds at 3200 feet AGL
broken clouds at 4100 feet AGL
overcast cloud deck at 7000 feet AGL
Weather: no significant weather observed at this time

METAR text: LFBZ 191530Z AUTO 03005KT 350V060 9999 OVC032 20/15 Q1020 NOSIG
Conditions at: LFBZ (BIARRITZ/ANGLET , FR) observed 1530 UTC 19 August 2019
Temperature: 20.0°C (68°F)
Dewpoint: 15.0°C (59°F) [RH = 73%]
Pressure (altimeter): 30.12 inches Hg (1020.0 mb)
Winds: from the NNE (30 degrees) at 6 MPH (5 knots; 2.6 m/s)
Visibility: 6 or more miles (10+ km)
Ceiling: 3200 feet AGL
Clouds: overcast cloud deck at 3200 feet AGL
Weather: no significant weather observed at this time

METAR text: LFBZ 191500Z AUTO 10004KT 070V130 9999 FEW027/// BKN034/// OVC041/// ///CB 21/15 Q1020 TEMPO 35010KT BECMG BKN040
Conditions at: LFBZ (BIARRITZ/ANGLET , FR) observed 1500 UTC 19 August 2019
Temperature: 21.0°C (70°F)
Dewpoint: 15.0°C (59°F) [RH = 69%]
Pressure (altimeter): 30.12 inches Hg (1020.0 mb)
Winds: from the E (100 degrees) at 5 MPH (4 knots; 2.1 m/s)
Visibility: 6 or more miles (10+ km)
Ceiling: 3400 feet AGL
Clouds: few clouds at 2700 feet AGL
broken clouds at 3400 feet AGL
overcast cloud deck at 4100 feet AGL
Weather: no significant weather observed at this time

METAR text: LFBZ 191430Z AUTO VRB03KT 9999 BKN036/// OVC046/// ///CB 21/15 Q1021 BECMG BKN040
Conditions at: LFBZ (BIARRITZ/ANGLET , FR) observed 1430 UTC 19 August 2019
Temperature: 21.0°C (70°F)
Dewpoint: 15.0°C (59°F) [RH = 69%]
Pressure (altimeter): 30.15 inches Hg (1021.0 mb)
Winds: variable direction winds at 3 MPH (3 knots; 1.5 m/s)
Visibility: 6 or more miles (10+ km)
Ceiling: 3600 feet AGL
Clouds: broken clouds at 3600 feet AGL
overcast cloud deck at 4600 feet AGL
Weather: no significant weather observed at this time

METAR text: LFBZ 191400Z AUTO 12004KT 070V160 9999 BKN036/// OVC047/// ///TCU 21/15 Q1021 TEMPO 35010KT BECMG BKN040
Conditions at: LFBZ (BIARRITZ/ANGLET , FR) observed 1400 UTC 19 August 2019
Temperature: 21.0°C (70°F)
Dewpoint: 15.0°C (59°F) [RH = 69%]
Pressure (altimeter): 30.15 inches Hg (1021.0 mb)
Winds: from the ESE (120 degrees) at 5 MPH (4 knots; 2.1 m/s)
Visibility: 6 or more miles (10+ km)
Ceiling: 3600 feet AGL
Clouds: broken clouds at 3600 feet AGL
overcast cloud deck at 4700 feet AGL
Weather: no significant weather observed at this time

METAR text: LFBZ 191330Z AUTO 10004KT 050V160 9999 BKN036 BKN044 OVC050 21/15 Q1021 TEMPO 35010KT
Conditions at: LFBZ (BIARRITZ/ANGLET , FR) observed 1330 UTC 19 August 2019
Temperature: 21.0°C (70°F)
Dewpoint: 15.0°C (59°F) [RH = 69%]
Pressure (altimeter): 30.15 inches Hg (1021.0 mb)
Winds: from the E (100 degrees) at 5 MPH (4 knots; 2.1 m/s)
Visibility: 6 or more miles (10+ km)
Ceiling: 3600 feet AGL
Clouds: broken clouds at 3600 feet AGL
broken clouds at 4400 feet AGL
overcast cloud deck at 5000 feet AGL
Weather: no significant weather observed at this time

METAR text: LFBZ 191300Z AUTO 10005KT 9999 SCT037 OVC044 21/15 Q1021 TEMPO 35010KT
Conditions at: LFBZ (BIARRITZ/ANGLET , FR) observed 1300 UTC 19 August 2019
Temperature: 21.0°C (70°F)
Dewpoint: 15.0°C (59°F) [RH = 69%]
Pressure (altimeter): 30.15 inches Hg (1021.0 mb)
Winds: from the E (100 degrees) at 6 MPH (5 knots; 2.6 m/s)
Visibility: 6 or more miles (10+ km)
Ceiling: 4400 feet AGL
Clouds: scattered clouds at 3700 feet AGL
overcast cloud deck at 4400 feet AGL
Weather: no significant weather observed at this time

METAR text: LFBZ 191230Z AUTO 06006KT 030V090 9999 FEW034 OVC043 21/15 Q1021 NOSIG
Conditions at: LFBZ (BIARRITZ/ANGLET , FR) observed 1230 UTC 19 August 2019
Temperature: 21.0°C (70°F)
Dewpoint: 15.0°C (59°F) [RH = 69%]
Pressure (altimeter): 30.15 inches Hg (1021.0 mb)
Winds: from the ENE (60 degrees) at 7 MPH (6 knots; 3.1 m/s)
Visibility: 6 or more miles (10+ km)
Ceiling: 4300 feet AGL
Clouds: few clouds at 3400 feet AGL
overcast cloud deck at 4300 feet AGL
Weather: no significant weather observed at this time

METAR text: LFBZ 191200Z AUTO 10007KT 070V150 9999 BKN033 BKN046 OVC110 22/15 Q1021 TEMPO 35010KT
Conditions at: LFBZ (BIARRITZ/ANGLET , FR) observed 1200 UTC 19 August 2019
Temperature: 22.0°C (72°F)
Dewpoint: 15.0°C (59°F) [RH = 65%]
Pressure (altimeter): 30.15 inches Hg (1021.0 mb)
Winds: from the E (100 degrees) at 8 MPH (7 knots; 3.6 m/s)
Visibility: 6 or more miles (10+ km)
Ceiling: 3300 feet AGL
Clouds: broken clouds at 3300 feet AGL
broken clouds at 4600 feet AGL
overcast cloud deck at 11000 feet AGL
Weather: no significant weather observed at this time

METAR text: LFBZ 191130Z AUTO 07008KT 040V120 9999 FEW030 SCT050 BKN110 22/15 Q1021 NOSIG
Conditions at: LFBZ (BIARRITZ/ANGLET , FR) observed 1130 UTC 19 August 2019
Temperature: 22.0°C (72°F)
Dewpoint: 15.0°C (59°F) [RH = 65%]
Pressure (altimeter): 30.15 inches Hg (1021.0 mb)
Winds: from the ENE (70 degrees) at 9 MPH (8 knots; 4.1 m/s)
Visibility: 6 or more miles (10+ km)
Ceiling: 11000 feet AGL
Clouds: few clouds at 3000 feet AGL
scattered clouds at 5000 feet AGL
broken clouds at 11000 feet AGL
Weather: no significant weather observed at this time

METAR text: LFBZ 191100Z AUTO 11006KT 070V160 9999 FEW028 SCT047 BKN120 22/15 Q1020 TEMPO 35010KT
Conditions at: LFBZ (BIARRITZ/ANGLET , FR) observed 1100 UTC 19 August 2019
Temperature: 22.0°C (72°F)
Dewpoint: 15.0°C (59°F) [RH = 65%]
Pressure (altimeter): 30.12 inches Hg (1020.0 mb)
Winds: from the ESE (110 degrees) at 7 MPH (6 knots; 3.1 m/s)
Visibility: 6 or more miles (10+ km)
Ceiling: 12000 feet AGL
Clouds: few clouds at 2800 feet AGL
scattered clouds at 4700 feet AGL
broken clouds at 12000 feet AGL
Weather: no significant weather observed at this time

METAR text: LFBZ 191030Z AUTO 08008KT 060V140 9999 FEW028 BKN066 BKN230 21/15 Q1021 TEMPO 35010KT
Conditions at: LFBZ (BIARRITZ/ANGLET , FR) observed 1030 UTC 19 August 2019
Temperature: 21.0°C (70°F)
Dewpoint: 15.0°C (59°F) [RH = 69%]
Pressure (altimeter): 30.15 inches Hg (1021.0 mb)
Winds: from the E (80 degrees) at 9 MPH (8 knots; 4.1 m/s)
Visibility: 6 or more miles (10+ km)
Ceiling: 6600 feet AGL
Clouds: few clouds at 2800 feet AGL
broken clouds at 6600 feet AGL
broken clouds at 23000 feet AGL
Weather: no significant weather observed at this time

METAR text: LFBZ 191000Z AUTO 08006KT 040V120 9999 FEW019 OVC066 21/15 Q1021 NOSIG
Conditions at: LFBZ (BIARRITZ/ANGLET , FR) observed 1000 UTC 19 August 2019
Temperature: 21.0°C (70°F)
Dewpoint: 15.0°C (59°F) [RH = 69%]
Pressure (altimeter): 30.15 inches Hg (1021.0 mb)
Winds: from the E (80 degrees) at 7 MPH (6 knots; 3.1 m/s)
Visibility: 6 or more miles (10+ km)
Ceiling: 6600 feet AGL
Clouds: few clouds at 1900 feet AGL
overcast cloud deck at 6600 feet AGL
Weather: no significant weather observed at this time

METAR text: LFBZ 190930Z AUTO 08005KT 040V110 9999 FEW018 OVC064 20/16 Q1021 NOSIG
Conditions at: LFBZ (BIARRITZ/ANGLET , FR) observed 0930 UTC 19 August 2019
Temperature: 20.0°C (68°F)
Dewpoint: 16.0°C (61°F) [RH = 78%]
Pressure (altimeter): 30.15 inches Hg (1021.0 mb)
Winds: from the E (80 degrees) at 6 MPH (5 knots; 2.6 m/s)
Visibility: 6 or more miles (10+ km)
Ceiling: 6400 feet AGL
Clouds: few clouds at 1800 feet AGL
overcast cloud deck at 6400 feet AGL
Weather: no significant weather observed at this time

Forecast for: LFBZ (BIARRITZ/ANGLET , FR)
Text: TAF LFBZ 201700Z 2018/2118 36008KT CAVOK
Forecast period: 1800 to 2100 UTC 20 August 2019
Forecast type: FROM: standard forecast or significant change
Winds: from the N (360 degrees) at 9 MPH (8 knots; 4.1 m/s)
Visibility: 6 or more miles 10+ km)
Ceiling: unknown
Clouds: missing
Weather: NSW  (no significant weather)
Text: BECMG 2021/2023 10005KT
Forecast period: 2100 UTC 20 August 2019 to 0900 UTC 21 August 2019
Forecast type: BECOMING: Conditions expected to become as follows by 2300 UTC 20 August 2019
Winds: from the E (100 degrees) at 6 MPH (5 knots; 2.6 m/s)
Visibility: 6 or more miles 10+ km)
Ceiling: unknown
Clouds: missing
Weather: NSW  (no significant weather)
Text: BECMG 2109/2111 08010KT
Forecast period: 0900 to 1500 UTC 21 August 2019
Forecast type: BECOMING: Conditions expected to become as follows by 1100 UTC 21 August 2019
Winds: from the E (80 degrees) at 12 MPH (10 knots; 5.1 m/s)
Visibility: 6 or more miles 10+ km)
Ceiling: unknown
Clouds: missing
Weather: NSW  (no significant weather)
Text: BECMG 2115/2117 36010KT
Forecast period: 1500 to 1800 UTC 21 August 2019
Forecast type: BECOMING: Conditions expected to become as follows by 1700 UTC 21 August 2019
Winds: from the N (360 degrees) at 12 MPH (10 knots; 5.1 m/s)
Visibility: 6 or more miles 10+ km)
Ceiling: unknown
Clouds: missing
Weather: NSW  (no significant weather)